createdAt,value
2019-01-26T00:01:31.563Z,107.20
2019-01-26T00:04:03.063Z,96.77
2019-01-26T00:06:34.711Z,86.80
2019-01-26T00:09:11.118Z,105.03
2019-01-26T00:11:42.681Z,98.77
2019-01-26T00:14:14.251Z,76.00
2019-01-26T00:16:46.063Z,79.67
2019-01-26T00:19:17.639Z,66.23
2019-01-26T00:21:49.211Z,94.40
2019-01-26T00:24:20.723Z,78.97
2019-01-26T00:26:52.209Z,68.37
2019-01-26T00:29:23.831Z,62.77
2019-01-26T00:31:55.409Z,85.07
2019-01-26T00:34:27.019Z,79.93
2019-01-26T00:36:58.624Z,60.27
2019-01-26T00:39:30.408Z,79.87
2019-01-26T00:42:01.911Z,88.47
2019-01-26T00:44:33.417Z,91.47
2019-01-26T00:47:05.421Z,93.57
2019-01-26T00:49:37.040Z,100.37
2019-01-26T00:52:08.681Z,65.80
2019-01-26T00:54:40.267Z,98.03
2019-01-26T00:57:11.770Z,73.23
2019-01-26T00:59:43.220Z,68.30
2019-01-26T01:02:14.748Z,88.63
2019-01-26T01:04:46.290Z,87.77
2019-01-26T01:07:17.793Z,60.83
2019-01-26T01:09:49.344Z,89.20
2019-01-26T01:12:21.012Z,79.57
2019-01-26T01:14:52.720Z,75.07
2019-01-26T01:17:24.306Z,75.80
2019-01-26T01:19:55.896Z,60.00
2019-01-26T01:22:27.641Z,64.57
2019-01-26T01:24:59.238Z,48.90
2019-01-26T01:27:30.880Z,58.53
2019-01-26T01:30:02.493Z,53.27
2019-01-26T01:32:34.100Z,66.10
2019-01-26T01:35:06.099Z,57.03
2019-01-26T01:37:37.617Z,42.87
2019-01-26T01:40:09.417Z,61.63
2019-01-26T01:42:40.966Z,61.40
2019-01-26T01:45:15.546Z,62.17
2019-01-26T01:47:47.337Z,65.97
2019-01-26T01:50:20.148Z,50.70
2019-01-26T01:52:51.573Z,58.63
2019-01-26T01:55:23.199Z,69.77
2019-01-26T01:57:54.807Z,62.57
2019-01-26T02:00:27.009Z,68.90
2019-01-26T02:02:58.391Z,79.00
2019-01-26T02:05:29.867Z,71.40
2019-01-26T02:08:01.343Z,68.03
2019-01-26T02:10:33.680Z,71.87
2019-01-26T02:13:05.347Z,69.83
2019-01-26T02:15:39.182Z,58.73
2019-01-26T02:18:10.770Z,57.50
2019-01-26T02:20:42.309Z,46.53
2019-01-26T02:23:13.760Z,75.17
2019-01-26T02:25:45.289Z,79.87
2019-01-26T02:28:17.142Z,64.30
2019-01-26T02:30:48.752Z,71.93
2019-01-26T02:33:20.414Z,88.73
2019-01-26T02:35:51.961Z,102.43
2019-01-26T02:38:23.636Z,92.00
2019-01-26T02:40:55.267Z,78.03
2019-01-26T02:43:26.762Z,68.43
2019-01-26T02:45:58.264Z,70.67
2019-01-26T02:48:29.811Z,73.50
2019-01-26T02:51:01.297Z,66.50
2019-01-26T02:53:32.919Z,95.07
2019-01-26T02:56:04.396Z,88.27
2019-01-26T02:58:35.851Z,85.33
2019-01-26T03:01:07.503Z,75.40
2019-01-26T03:03:39.240Z,82.63
2019-01-26T03:06:12.168Z,80.53
2019-01-26T03:08:43.892Z,77.10
2019-01-26T03:11:15.548Z,82.97
2019-01-26T03:13:47.030Z,98.87
2019-01-26T03:16:18.720Z,85.90
2019-01-26T03:18:50.187Z,85.57
2019-01-26T03:21:21.716Z,85.30
2019-01-26T03:23:53.399Z,75.97
2019-01-26T03:26:24.870Z,91.70
2019-01-26T03:28:56.380Z,82.10
2019-01-26T03:31:29.273Z,79.60
2019-01-26T03:34:00.881Z,73.23
2019-01-26T03:36:32.500Z,77.47
2019-01-26T03:39:04.363Z,66.20
2019-01-26T03:41:35.763Z,65.37
2019-01-26T03:44:07.280Z,73.47
2019-01-26T03:46:38.830Z,80.77
2019-01-26T03:49:10.552Z,77.33
2019-01-26T03:51:42.078Z,96.77
2019-01-26T03:54:13.702Z,87.83
2019-01-26T03:56:45.113Z,85.50
2019-01-26T03:59:16.630Z,86.50
2019-01-26T04:01:48.044Z,109.00
2019-01-26T04:04:19.521Z,88.40
2019-01-26T04:06:51.224Z,90.57
2019-01-26T04:09:22.862Z,98.13
2019-01-26T04:11:54.533Z,117.13
2019-01-26T04:14:26.091Z,90.53
2019-01-26T04:16:57.784Z,113.43
2019-01-26T04:19:29.189Z,97.23
2019-01-26T04:22:00.662Z,114.43
2019-01-26T04:24:32.119Z,82.20
2019-01-26T04:27:03.652Z,102.43
2019-01-26T04:29:35.012Z,76.50
2019-01-26T04:32:06.600Z,119.07
2019-01-26T04:34:38.060Z,123.30
2019-01-26T04:37:09.604Z,102.50
2019-01-26T04:39:41.124Z,89.83
2019-01-26T04:42:12.839Z,100.07
2019-01-26T04:44:44.381Z,76.13
2019-01-26T04:47:15.796Z,64.50
2019-01-26T04:49:47.362Z,78.97
2019-01-26T04:52:18.965Z,60.80
2019-01-26T04:54:50.519Z,56.43
2019-01-26T04:57:22.042Z,77.27
2019-01-26T04:59:54.490Z,69.43
2019-01-26T05:02:25.971Z,76.67
2019-01-26T05:04:57.751Z,62.87
2019-01-26T05:07:29.319Z,56.97
2019-01-26T05:10:00.928Z,62.30
2019-01-26T05:12:32.453Z,77.73
2019-01-26T05:15:04.060Z,60.77
2019-01-26T05:17:39.557Z,66.20
2019-01-26T05:20:12.923Z,91.23
2019-01-26T05:22:44.463Z,96.40
2019-01-26T05:25:16.109Z,62.37
2019-01-26T05:27:48.693Z,86.07
2019-01-26T05:30:22.681Z,69.63
2019-01-26T05:32:54.231Z,127.23
2019-01-26T05:35:25.931Z,84.87
2019-01-26T05:37:57.436Z,96.03
2019-01-26T05:40:29.099Z,63.77
2019-01-26T05:43:00.720Z,96.73
2019-01-26T05:45:32.272Z,108.77
2019-01-26T05:48:03.913Z,83.80
2019-01-26T05:50:35.459Z,100.43
2019-01-26T05:53:07.177Z,114.07
2019-01-26T05:55:38.670Z,92.10
2019-01-26T05:58:10.215Z,101.80
2019-01-26T06:00:41.781Z,108.07
2019-01-26T06:03:13.222Z,91.03
2019-01-26T06:05:44.774Z,118.93
2019-01-26T06:08:16.300Z,113.20
2019-01-26T06:10:49.151Z,103.20
2019-01-26T06:13:20.720Z,114.77
2019-01-26T06:15:52.223Z,106.10
2019-01-26T06:18:23.745Z,118.67
2019-01-26T06:20:55.221Z,133.47
2019-01-26T06:23:26.781Z,83.27
2019-01-26T06:25:58.268Z,136.57
2019-01-26T06:28:29.744Z,117.77
2019-01-26T06:31:01.243Z,136.90
2019-01-26T06:33:32.784Z,135.83
2019-01-26T06:36:04.205Z,135.43
2019-01-26T06:38:35.807Z,104.10
2019-01-26T06:41:07.244Z,141.33
2019-01-26T06:43:39.715Z,143.63
2019-01-26T06:46:11.289Z,107.03
2019-01-26T06:48:42.899Z,87.77
2019-01-26T06:51:14.541Z,118.70
2019-01-26T06:53:46.111Z,140.50
2019-01-26T06:56:17.671Z,116.47
2019-01-26T06:58:49.153Z,95.50
2019-01-26T07:01:20.783Z,160.77
2019-01-26T07:03:52.241Z,132.40
2019-01-26T07:06:32.477Z,124.17
2019-01-26T07:09:05.470Z,124.60
2019-01-26T07:11:37.121Z,136.00
2019-01-26T07:14:08.815Z,95.17
2019-01-26T07:16:40.471Z,75.03
2019-01-26T07:19:12.005Z,98.47
2019-01-26T07:21:43.561Z,105.80
2019-01-26T07:24:15.122Z,120.93
2019-01-26T07:26:46.746Z,125.47
2019-01-26T07:29:18.440Z,105.10
2019-01-26T07:31:50.031Z,110.60
2019-01-26T07:34:21.704Z,120.00
2019-01-26T07:36:53.411Z,95.27
2019-01-26T07:39:25.166Z,84.00
2019-01-26T07:41:56.751Z,84.23
2019-01-26T07:44:28.284Z,108.10
2019-01-26T07:46:59.870Z,91.63
2019-01-26T07:49:31.546Z,86.07
2019-01-26T07:52:03.180Z,97.23
2019-01-26T07:54:34.791Z,102.87
2019-01-26T07:57:06.302Z,91.63
2019-01-26T07:59:38.012Z,97.47
2019-01-26T08:02:09.628Z,109.80
2019-01-26T08:04:41.189Z,116.30
2019-01-26T08:07:12.754Z,95.90
2019-01-26T08:09:44.330Z,64.20
2019-01-26T08:12:15.897Z,57.47
2019-01-26T08:14:47.561Z,115.60
2019-01-26T08:17:19.165Z,81.40
2019-01-26T08:19:50.815Z,106.80
2019-01-26T08:22:22.381Z,94.63
2019-01-26T08:24:53.903Z,59.43
2019-01-26T08:27:25.491Z,73.10
2019-01-26T08:29:56.974Z,98.03
2019-01-26T08:32:28.640Z,86.93
2019-01-26T08:35:00.255Z,88.67
2019-01-26T08:37:31.900Z,75.87
2019-01-26T08:40:03.628Z,88.23
2019-01-26T08:42:35.199Z,103.17
2019-01-26T08:45:08.210Z,111.60
2019-01-26T08:47:39.802Z,91.47
2019-01-26T08:50:16.839Z,111.27
2019-01-26T08:52:48.470Z,93.33
2019-01-26T08:55:19.975Z,115.10
2019-01-26T08:57:51.527Z,96.03
2019-01-26T09:00:27.870Z,107.67
2019-01-26T09:03:18.171Z,99.00
2019-01-26T09:06:08.587Z,90.33
2019-01-26T09:08:40.159Z,81.97
2019-01-26T09:11:11.798Z,74.00
2019-01-26T09:13:43.362Z,53.97
2019-01-26T09:16:14.933Z,65.73
2019-01-26T09:18:46.635Z,77.57
2019-01-26T09:21:18.193Z,83.90
2019-01-26T09:23:49.702Z,72.37
2019-01-26T09:26:21.227Z,105.23
2019-01-26T09:28:52.651Z,56.40
2019-01-26T09:31:24.153Z,66.93
2019-01-26T09:33:55.674Z,81.93
2019-01-26T09:36:27.136Z,68.83
2019-01-26T09:38:58.691Z,100.97
2019-01-26T09:41:30.171Z,58.20
2019-01-26T09:44:01.769Z,58.97
2019-01-26T09:46:33.312Z,92.47
2019-01-26T09:49:05.114Z,77.17
2019-01-26T09:51:36.956Z,118.77
2019-01-26T09:54:08.970Z,176.80
2019-01-26T09:56:40.471Z,60.80
2019-01-26T09:59:12.019Z,83.90
2019-01-26T10:01:43.601Z,69.67
2019-01-26T10:04:15.151Z,46.63
2019-01-26T10:06:46.786Z,35.30
2019-01-26T10:09:18.385Z,44.77
2019-01-26T10:11:49.992Z,47.97
2019-01-26T10:14:21.397Z,45.80
2019-01-26T10:16:53.051Z,37.33
2019-01-26T10:19:24.732Z,36.10
2019-01-26T10:21:59.171Z,46.83
2019-01-26T10:24:30.815Z,34.83
2019-01-26T10:27:02.514Z,38.37
2019-01-26T10:29:34.150Z,27.10
2019-01-26T10:32:05.907Z,26.93
2019-01-26T10:34:37.549Z,43.37
2019-01-26T10:37:16.482Z,44.53
2019-01-26T10:39:48.161Z,45.27
2019-01-26T10:42:25.850Z,55.53
2019-01-26T10:44:57.391Z,37.27
2019-01-26T10:47:28.889Z,35.17
2019-01-26T10:50:02.520Z,30.90
2019-01-26T10:52:34.190Z,28.03
2019-01-26T10:55:06.859Z,35.03
2019-01-26T10:57:38.452Z,24.37
2019-01-26T11:00:13.241Z,36.40
2019-01-26T11:02:44.908Z,27.57
2019-01-26T11:05:16.504Z,22.13
2019-01-26T11:07:48.150Z,34.20
2019-01-26T11:10:19.975Z,21.80
2019-01-26T11:12:51.560Z,31.93
2019-01-26T11:15:23.285Z,31.67
2019-01-26T11:17:54.842Z,63.63
2019-01-26T11:20:26.465Z,75.33
2019-01-26T11:22:58.120Z,44.20
2019-01-26T11:25:29.651Z,49.80
2019-01-26T11:28:01.042Z,47.00
2019-01-26T11:30:34.385Z,43.20
2019-01-26T11:33:06.060Z,48.87
2019-01-26T11:35:37.647Z,66.07
2019-01-26T11:38:10.890Z,70.17
2019-01-26T11:40:42.793Z,81.80
2019-01-26T11:43:14.469Z,46.63
2019-01-26T11:46:04.738Z,36.03
2019-01-26T11:48:39.985Z,45.43
2019-01-26T11:51:22.511Z,29.70
2019-01-26T11:53:54.045Z,56.00
2019-01-26T11:56:47.391Z,36.70
2019-01-26T11:59:19.553Z,24.27
2019-01-26T12:02:09.808Z,33.30
2019-01-26T12:05:00.144Z,23.80
2019-01-26T12:07:34.391Z,18.83
2019-01-26T12:10:08.324Z,21.93
2019-01-26T12:12:42.970Z,20.13
2019-01-26T12:15:16.119Z,22.03
2019-01-26T12:17:47.561Z,15.63
2019-01-26T12:20:19.300Z,15.57
2019-01-26T12:22:50.861Z,15.33
2019-01-26T12:25:22.455Z,17.90
2019-01-26T12:27:53.971Z,15.77
2019-01-26T12:30:26.457Z,16.53
2019-01-26T12:32:58.233Z,20.50
2019-01-26T12:35:29.889Z,15.70
2019-01-26T12:38:01.502Z,16.10
2019-01-26T12:40:33.010Z,19.50
2019-01-26T12:43:04.592Z,19.07
2019-01-26T12:45:36.122Z,14.33
2019-01-26T12:48:08.786Z,12.43
2019-01-26T12:50:40.343Z,15.37
2019-01-26T12:53:12.011Z,13.10
2019-01-26T12:55:43.699Z,14.77
2019-01-26T12:58:15.155Z,15.70
2019-01-26T13:00:46.717Z,15.63
2019-01-26T13:03:18.301Z,14.33
2019-01-26T13:05:49.921Z,22.20
2019-01-26T13:08:21.551Z,21.60
2019-01-26T13:10:56.632Z,14.23
2019-01-26T13:13:28.321Z,13.50
2019-01-26T13:16:00.052Z,21.77
2019-01-26T13:18:31.715Z,15.60
2019-01-26T13:21:06.107Z,11.07
2019-01-26T13:23:37.661Z,11.17
2019-01-26T13:26:09.306Z,10.57
2019-01-26T13:28:42.631Z,10.60
2019-01-26T13:31:14.311Z,9.47
2019-01-26T13:33:45.890Z,10.93
2019-01-26T13:36:17.331Z,9.33
2019-01-26T13:38:48.790Z,10.67
2019-01-26T13:41:20.294Z,12.27
2019-01-26T13:43:51.905Z,13.63
2019-01-26T13:46:23.552Z,15.03
2019-01-26T13:48:55.160Z,36.50
2019-01-26T13:51:26.763Z,78.77
2019-01-26T13:53:58.295Z,52.30
2019-01-26T13:56:30.019Z,35.60
2019-01-26T13:59:01.664Z,24.07
2019-01-26T14:01:33.305Z,71.30
2019-01-26T14:04:05.049Z,73.10
2019-01-26T14:06:36.683Z,73.93
2019-01-26T14:09:10.168Z,50.53
2019-01-26T14:11:41.779Z,22.43
2019-01-26T14:14:13.400Z,24.57
2019-01-26T14:16:45.062Z,29.77
2019-01-26T14:19:16.631Z,13.97
2019-01-26T14:21:48.252Z,11.30
2019-01-26T14:24:19.812Z,9.53
2019-01-26T14:26:51.471Z,10.03
2019-01-26T14:29:22.942Z,8.53
2019-01-26T14:31:54.631Z,10.23
2019-01-26T14:34:26.061Z,12.47
2019-01-26T14:36:57.721Z,9.23
2019-01-26T14:39:29.389Z,9.57
2019-01-26T14:42:00.899Z,10.20
2019-01-26T14:44:32.341Z,9.13
2019-01-26T14:47:03.837Z,9.27
2019-01-26T14:49:35.408Z,8.67
2019-01-26T14:52:06.994Z,8.80
2019-01-26T14:54:38.585Z,8.10
2019-01-26T14:57:11.097Z,8.83
2019-01-26T14:59:42.610Z,9.03
2019-01-26T15:02:14.156Z,8.50
2019-01-26T15:04:45.706Z,7.40
2019-01-26T15:07:17.319Z,6.73
2019-01-26T15:09:48.953Z,6.07
2019-01-26T15:12:20.527Z,5.53
2019-01-26T15:14:52.022Z,5.70
2019-01-26T15:17:23.611Z,5.63
2019-01-26T15:19:55.051Z,5.97
2019-01-26T15:22:26.501Z,5.97
2019-01-26T15:24:58.062Z,6.30
2019-01-26T15:27:29.501Z,5.90
2019-01-26T15:30:00.994Z,6.17
2019-01-26T15:32:32.574Z,6.07
2019-01-26T15:35:04.132Z,5.40
2019-01-26T15:37:35.706Z,5.90
2019-01-26T15:40:08.292Z,5.87
2019-01-26T15:42:39.722Z,6.57
2019-01-26T15:45:15.139Z,6.73
2019-01-26T15:47:46.631Z,5.87
2019-01-26T15:50:18.360Z,7.23
2019-01-26T15:52:50.010Z,7.93
2019-01-26T15:55:23.497Z,9.37
2019-01-26T15:57:55.044Z,6.80
2019-01-26T16:00:30.334Z,7.17
2019-01-26T16:03:01.917Z,8.20
2019-01-26T16:05:33.672Z,7.40
2019-01-26T16:08:06.113Z,12.90
2019-01-26T16:10:37.534Z,9.50
2019-01-26T16:13:09.532Z,7.37
2019-01-26T16:15:41.377Z,7.63
2019-01-26T16:18:15.497Z,7.57
2019-01-26T16:20:47.079Z,7.77
2019-01-26T16:23:18.574Z,7.83
2019-01-26T16:25:50.209Z,8.70
2019-01-26T16:28:21.692Z,7.80
2019-01-26T16:30:53.245Z,8.17
2019-01-26T16:33:24.843Z,9.87
2019-01-26T16:35:56.393Z,10.03
2019-01-26T16:38:27.919Z,13.67
2019-01-26T16:40:59.705Z,13.30
2019-01-26T16:43:31.228Z,17.70
2019-01-26T16:46:02.933Z,21.63
2019-01-26T16:48:35.856Z,15.67
2019-01-26T16:51:08.772Z,12.73
2019-01-26T16:53:41.806Z,13.07
2019-01-26T16:56:13.373Z,13.83
2019-01-26T16:58:45.092Z,9.93
2019-01-26T17:01:16.758Z,10.27
2019-01-26T17:03:48.362Z,8.30
2019-01-26T17:06:20.022Z,9.47
2019-01-26T17:08:51.660Z,37.60
2019-01-26T17:11:23.281Z,27.73
2019-01-26T17:13:54.819Z,29.67
2019-01-26T17:16:26.390Z,34.27
2019-01-26T17:19:00.595Z,31.07
2019-01-26T17:21:32.169Z,37.13
2019-01-26T17:24:03.769Z,22.63
2019-01-26T17:26:38.010Z,13.47
2019-01-26T17:37:30.268Z,11.80
2019-01-26T17:40:23.405Z,15.20
2019-01-26T17:42:59.215Z,11.47
2019-01-26T17:45:33.738Z,11.93
2019-01-26T17:48:05.663Z,10.93
2019-01-26T17:50:42.125Z,10.00
2019-01-26T17:53:10.440Z,12.70
2019-01-26T17:55:42.072Z,16.93
2019-01-26T17:58:13.641Z,29.50
2019-01-26T18:01:03.895Z,33.83
2019-01-26T18:03:37.037Z,53.33
2019-01-26T18:06:08.807Z,29.67
2019-01-26T18:08:40.443Z,30.17
2019-01-26T18:11:11.991Z,38.23
2019-01-26T18:13:43.590Z,25.50
2019-01-26T18:16:15.072Z,22.27
2019-01-26T18:18:47.821Z,15.37
2019-01-26T18:21:19.289Z,13.83
2019-01-26T18:23:52.092Z,14.50
2019-01-26T18:26:23.812Z,13.40
2019-01-26T18:28:55.440Z,14.40
2019-01-26T18:31:27.114Z,13.23
2019-01-26T18:33:58.819Z,14.63
2019-01-26T18:36:30.419Z,14.87
2019-01-26T18:39:02.040Z,17.43
2019-01-26T18:41:33.483Z,16.40
2019-01-26T18:44:05.280Z,15.17
2019-01-26T18:46:36.785Z,16.43
2019-01-26T18:49:08.428Z,15.10
2019-01-26T18:51:41.201Z,14.03
2019-01-26T18:54:12.789Z,13.83
2019-01-26T18:56:44.589Z,12.97
2019-01-26T18:59:16.188Z,13.80
2019-01-26T19:01:47.721Z,13.27
2019-01-26T19:04:26.473Z,14.70
2019-01-26T19:06:58.294Z,13.50
2019-01-26T19:09:29.820Z,14.57
2019-01-26T19:12:01.311Z,15.40
2019-01-26T19:14:33.551Z,24.40
2019-01-26T19:17:05.351Z,19.93
2019-01-26T19:19:36.950Z,23.40
2019-01-26T19:22:08.647Z,23.27
2019-01-26T19:24:40.072Z,20.93
2019-01-26T19:27:11.773Z,16.50
2019-01-26T19:29:43.410Z,20.37
2019-01-26T19:32:14.910Z,20.43
2019-01-26T19:34:46.460Z,14.90
2019-01-26T19:37:18.265Z,14.17
2019-01-26T19:39:50.063Z,13.60
2019-01-26T19:42:21.719Z,13.33
2019-01-26T19:44:53.201Z,12.83
2019-01-26T19:47:24.761Z,12.53
2019-01-26T19:49:56.400Z,14.87
2019-01-26T19:52:27.979Z,14.53
2019-01-26T19:54:59.561Z,13.87
2019-01-26T19:57:31.073Z,14.73
2019-01-26T20:00:02.623Z,15.27
2019-01-26T20:02:34.175Z,15.33
2019-01-26T20:05:06.742Z,15.47
2019-01-26T20:07:38.264Z,15.67
2019-01-26T20:10:11.982Z,15.10
2019-01-26T20:12:43.612Z,15.57
2019-01-26T20:15:17.804Z,15.27
2019-01-26T20:17:49.245Z,15.53
2019-01-26T20:20:26.308Z,14.33
2019-01-26T20:22:58.391Z,14.03
2019-01-26T20:25:29.979Z,15.03
2019-01-26T20:28:01.657Z,14.93
2019-01-26T20:30:34.669Z,14.83
2019-01-26T20:33:06.319Z,13.73
2019-01-26T20:35:37.797Z,15.57
2019-01-26T20:38:09.407Z,15.33
2019-01-26T20:40:40.959Z,15.00
2019-01-26T20:43:12.694Z,15.33
2019-01-26T20:45:44.222Z,15.40
2019-01-26T20:48:15.987Z,15.17
2019-01-26T20:50:47.486Z,14.87
2019-01-26T20:53:19.096Z,15.30
2019-01-26T20:55:50.582Z,15.23
2019-01-26T20:58:22.067Z,14.17
2019-01-26T21:00:53.617Z,14.17
2019-01-26T21:03:25.185Z,14.50
2019-01-26T21:05:57.963Z,14.57
2019-01-26T21:08:29.536Z,13.90
2019-01-26T21:11:01.041Z,12.67
2019-01-26T21:13:32.591Z,11.87
2019-01-26T21:16:04.133Z,11.83
2019-01-26T21:18:35.680Z,15.07
2019-01-26T21:21:07.195Z,11.57
2019-01-26T21:23:41.769Z,12.00
2019-01-26T21:26:13.379Z,11.13
2019-01-26T21:28:45.055Z,12.03
2019-01-26T21:31:16.743Z,12.63
2019-01-26T21:33:48.309Z,11.77
2019-01-26T21:36:19.971Z,11.83
2019-01-26T21:38:51.486Z,11.03
2019-01-26T21:41:23.163Z,11.90
2019-01-26T21:43:54.687Z,11.43
2019-01-26T21:46:26.294Z,11.60
2019-01-26T21:48:57.933Z,11.73
2019-01-26T21:51:29.579Z,11.30
2019-01-26T21:54:01.191Z,11.00
2019-01-26T21:56:32.729Z,10.67
2019-01-26T21:59:04.247Z,9.70
2019-01-26T22:01:35.866Z,10.57
2019-01-26T22:04:07.460Z,10.57
2019-01-26T22:06:38.943Z,8.57
2019-01-26T22:09:11.332Z,8.57
2019-01-26T22:11:42.778Z,9.17
2019-01-26T22:14:14.523Z,9.00
2019-01-26T22:16:46.125Z,8.47
2019-01-26T22:19:21.745Z,7.70
2019-01-26T22:21:51.166Z,8.53
2019-01-26T22:24:22.838Z,8.83
2019-01-26T22:26:54.421Z,9.07
2019-01-26T22:29:31.179Z,9.07
2019-01-26T22:31:59.431Z,9.27
2019-01-26T22:34:31.076Z,9.03
2019-01-26T22:37:02.765Z,9.50
2019-01-26T22:39:34.365Z,8.53
2019-01-26T22:42:06.257Z,8.90
2019-01-26T22:44:37.710Z,8.20
2019-01-26T22:47:09.351Z,8.73
2019-01-26T22:49:40.872Z,9.43
2019-01-26T22:52:13.987Z,8.60
2019-01-26T22:54:45.331Z,9.73
2019-01-26T22:57:17.444Z,10.00
2019-01-26T22:59:48.904Z,8.57
2019-01-26T23:02:20.586Z,9.80
2019-01-26T23:05:22.705Z,8.73
2019-01-26T23:07:58.384Z,11.20
2019-01-26T23:11:04.059Z,10.00
2019-01-26T23:13:49.174Z,10.90
2019-01-26T23:17:18.860Z,10.07
2019-01-26T23:20:27.175Z,10.87
2019-01-26T23:23:36.608Z,10.53
2019-01-26T23:26:24.573Z,10.67
2019-01-26T23:29:27.244Z,11.10
2019-01-26T23:31:58.814Z,11.70
2019-01-26T23:34:30.342Z,12.40
2019-01-26T23:37:02.009Z,11.80
2019-01-26T23:39:33.699Z,12.60
2019-01-26T23:42:05.400Z,10.97
2019-01-26T23:44:36.963Z,12.13
2019-01-26T23:47:08.486Z,12.63
2019-01-26T23:49:40.152Z,13.47
2019-01-26T23:52:11.761Z,12.37
2019-01-26T23:54:43.252Z,12.73
2019-01-26T23:57:14.856Z,11.97
2019-01-26T23:59:46.269Z,13.37
